sensor_id;sensor_type;location;lat;lon;timestamp;P1;durP1;ratioP1;P2;durP2;ratioP2
51907;SDS011;39320;53.214;6.556;2023-04-25T00:01:31;5.53;;;3.00;;
51907;SDS011;39320;53.214;6.556;2023-04-25T00:04:01;6.97;;;3.22;;
51907;SDS011;39320;53.214;6.556;2023-04-25T00:06:27;7.63;;;3.58;;
51907;SDS011;39320;53.214;6.556;2023-04-25T00:08:55;8.48;;;3.50;;
51907;SDS011;39320;53.214;6.556;2023-04-25T00:11:24;8.02;;;3.30;;
51907;SDS011;39320;53.214;6.556;2023-04-25T00:13:50;4.53;;;3.17;;
51907;SDS011;39320;53.214;6.556;2023-04-25T00:16:16;5.60;;;3.42;;
51907;SDS011;39320;53.214;6.556;2023-04-25T00:18:42;8.60;;;3.58;;
51907;SDS011;39320;53.214;6.556;2023-04-25T00:21:08;5.55;;;3.15;;
51907;SDS011;39320;53.214;6.556;2023-04-25T00:23:34;9.50;;;4.00;;
51907;SDS011;39320;53.214;6.556;2023-04-25T00:26:01;5.10;;;3.42;;
51907;SDS011;39320;53.214;6.556;2023-04-25T00:28:27;8.30;;;4.00;;
51907;SDS011;39320;53.214;6.556;2023-04-25T00:30:53;6.28;;;2.83;;
51907;SDS011;39320;53.214;6.556;2023-04-25T00:33:19;6.93;;;3.28;;
51907;SDS011;39320;53.214;6.556;2023-04-25T00:35:45;5.25;;;2.75;;
51907;SDS011;39320;53.214;6.556;2023-04-25T00:38:11;5.38;;;3.03;;
51907;SDS011;39320;53.214;6.556;2023-04-25T00:40:36;4.00;;;2.75;;
51907;SDS011;39320;53.214;6.556;2023-04-25T00:43:02;7.60;;;2.70;;
51907;SDS011;39320;53.214;6.556;2023-04-25T00:45:28;10.55;;;2.92;;
51907;SDS011;39320;53.214;6.556;2023-04-25T00:47:55;7.07;;;2.80;;
51907;SDS011;39320;53.214;6.556;2023-04-25T00:50:21;4.78;;;2.38;;
51907;SDS011;39320;53.214;6.556;2023-04-25T00:52:47;5.25;;;2.58;;
51907;SDS011;39320;53.214;6.556;2023-04-25T00:55:13;3.35;;;2.45;;
51907;SDS011;39320;53.214;6.556;2023-04-25T00:57:40;5.15;;;2.15;;
51907;SDS011;39320;53.214;6.556;2023-04-25T01:00:07;5.75;;;2.08;;
51907;SDS011;39320;53.214;6.556;2023-04-25T01:02:39;3.75;;;2.45;;
51907;SDS011;39320;53.214;6.556;2023-04-25T01:05:07;5.00;;;2.25;;
51907;SDS011;39320;53.214;6.556;2023-04-25T01:07:33;3.45;;;2.13;;
51907;SDS011;39320;53.214;6.556;2023-04-25T01:10:00;4.00;;;2.35;;
51907;SDS011;39320;53.214;6.556;2023-04-25T01:12:26;4.55;;;2.40;;
51907;SDS011;39320;53.214;6.556;2023-04-25T01:14:52;5.88;;;2.88;;
51907;SDS011;39320;53.214;6.556;2023-04-25T01:17:18;5.78;;;2.45;;
51907;SDS011;39320;53.214;6.556;2023-04-25T01:19:44;5.25;;;2.42;;
51907;SDS011;39320;53.214;6.556;2023-04-25T01:22:14;4.43;;;2.30;;
51907;SDS011;39320;53.214;6.556;2023-04-25T01:24:40;6.20;;;2.40;;
51907;SDS011;39320;53.214;6.556;2023-04-25T01:27:06;5.93;;;2.30;;
51907;SDS011;39320;53.214;6.556;2023-04-25T01:29:32;5.30;;;2.50;;
51907;SDS011;39320;53.214;6.556;2023-04-25T01:31:59;4.30;;;2.20;;
51907;SDS011;39320;53.214;6.556;2023-04-25T01:34:26;5.50;;;2.40;;
51907;SDS011;39320;53.214;6.556;2023-04-25T01:36:52;3.88;;;2.13;;
51907;SDS011;39320;53.214;6.556;2023-04-25T01:39:19;6.45;;;2.22;;
51907;SDS011;39320;53.214;6.556;2023-04-25T01:41:45;4.85;;;2.08;;
51907;SDS011;39320;53.214;6.556;2023-04-25T01:44:12;4.95;;;1.95;;
51907;SDS011;39320;53.214;6.556;2023-04-25T01:46:38;6.43;;;2.67;;
51907;SDS011;39320;53.214;6.556;2023-04-25T01:49:04;3.95;;;2.17;;
51907;SDS011;39320;53.214;6.556;2023-04-25T01:51:30;6.15;;;2.05;;
51907;SDS011;39320;53.214;6.556;2023-04-25T01:53:57;5.18;;;2.35;;
51907;SDS011;39320;53.214;6.556;2023-04-25T01:56:23;3.88;;;2.45;;
51907;SDS011;39320;53.214;6.556;2023-04-25T01:58:49;5.50;;;2.97;;
51907;SDS011;39320;53.214;6.556;2023-04-25T02:01:15;3.05;;;2.15;;
51907;SDS011;39320;53.214;6.556;2023-04-25T02:03:40;6.90;;;3.28;;
51907;SDS011;39320;53.214;6.556;2023-04-25T02:06:06;3.78;;;2.10;;
51907;SDS011;39320;53.214;6.556;2023-04-25T02:08:32;5.00;;;2.72;;
51907;SDS011;39320;53.214;6.556;2023-04-25T02:10:58;5.30;;;3.00;;
51907;SDS011;39320;53.214;6.556;2023-04-25T02:13:24;5.95;;;2.35;;
51907;SDS011;39320;53.214;6.556;2023-04-25T02:15:50;6.28;;;2.95;;
51907;SDS011;39320;53.214;6.556;2023-04-25T02:18:15;6.18;;;2.70;;
51907;SDS011;39320;53.214;6.556;2023-04-25T02:20:41;4.97;;;2.30;;
51907;SDS011;39320;53.214;6.556;2023-04-25T02:23:08;6.68;;;2.83;;
51907;SDS011;39320;53.214;6.556;2023-04-25T02:25:33;4.95;;;2.72;;
51907;SDS011;39320;53.214;6.556;2023-04-25T02:27:59;3.92;;;2.67;;
51907;SDS011;39320;53.214;6.556;2023-04-25T02:30:25;4.05;;;2.55;;
51907;SDS011;39320;53.214;6.556;2023-04-25T02:32:51;6.28;;;2.75;;
51907;SDS011;39320;53.214;6.556;2023-04-25T02:35:16;4.30;;;2.55;;
51907;SDS011;39320;53.214;6.556;2023-04-25T02:37:42;6.55;;;2.55;;
51907;SDS011;39320;53.214;6.556;2023-04-25T02:40:08;4.57;;;2.22;;
51907;SDS011;39320;53.214;6.556;2023-04-25T02:42:37;5.72;;;2.50;;
51907;SDS011;39320;53.214;6.556;2023-04-25T02:45:02;6.43;;;3.22;;
51907;SDS011;39320;53.214;6.556;2023-04-25T02:47:29;4.57;;;2.10;;
51907;SDS011;39320;53.214;6.556;2023-04-25T02:49:55;4.63;;;2.10;;
51907;SDS011;39320;53.214;6.556;2023-04-25T02:52:20;3.83;;;2.40;;
51907;SDS011;39320;53.214;6.556;2023-04-25T02:54:46;4.45;;;2.35;;
51907;SDS011;39320;53.214;6.556;2023-04-25T02:57:12;5.15;;;2.22;;
51907;SDS011;39320;53.214;6.556;2023-04-25T02:59:39;4.65;;;2.17;;
51907;SDS011;39320;53.214;6.556;2023-04-25T03:02:05;5.63;;;2.45;;
51907;SDS011;39320;53.214;6.556;2023-04-25T03:04:31;6.78;;;2.47;;
51907;SDS011;39320;53.214;6.556;2023-04-25T03:06:58;4.50;;;2.08;;
51907;SDS011;39320;53.214;6.556;2023-04-25T03:09:24;5.45;;;2.10;;
51907;SDS011;39320;53.214;6.556;2023-04-25T03:11:50;3.70;;;2.22;;
51907;SDS011;39320;53.214;6.556;2023-04-25T03:14:15;4.72;;;2.20;;
51907;SDS011;39320;53.214;6.556;2023-04-25T03:16:41;4.95;;;2.15;;
51907;SDS011;39320;53.214;6.556;2023-04-25T03:19:07;6.22;;;2.25;;
51907;SDS011;39320;53.214;6.556;2023-04-25T03:21:33;3.13;;;1.83;;
51907;SDS011;39320;53.214;6.556;2023-04-25T03:24:02;5.50;;;2.72;;
51907;SDS011;39320;53.214;6.556;2023-04-25T03:26:29;4.10;;;1.92;;
51907;SDS011;39320;53.214;6.556;2023-04-25T03:28:54;2.92;;;1.88;;
51907;SDS011;39320;53.214;6.556;2023-04-25T03:31:20;4.65;;;2.30;;
51907;SDS011;39320;53.214;6.556;2023-04-25T03:33:47;3.75;;;2.17;;
51907;SDS011;39320;53.214;6.556;2023-04-25T03:36:13;4.18;;;1.90;;
51907;SDS011;39320;53.214;6.556;2023-04-25T03:38:39;3.80;;;2.00;;
51907;SDS011;39320;53.214;6.556;2023-04-25T03:41:06;7.78;;;2.65;;
51907;SDS011;39320;53.214;6.556;2023-04-25T03:43:32;6.50;;;2.22;;
51907;SDS011;39320;53.214;6.556;2023-04-25T03:45:58;4.15;;;2.15;;
51907;SDS011;39320;53.214;6.556;2023-04-25T03:48:23;5.50;;;2.17;;
51907;SDS011;39320;53.214;6.556;2023-04-25T03:50:51;8.13;;;2.55;;
51907;SDS011;39320;53.214;6.556;2023-04-25T03:53:17;4.97;;;2.00;;
51907;SDS011;39320;53.214;6.556;2023-04-25T03:55:43;5.80;;;2.10;;
51907;SDS011;39320;53.214;6.556;2023-04-25T03:58:08;5.80;;;2.08;;
51907;SDS011;39320;53.214;6.556;2023-04-25T04:00:35;5.50;;;2.58;;
51907;SDS011;39320;53.214;6.556;2023-04-25T04:03:01;5.88;;;2.17;;
51907;SDS011;39320;53.214;6.556;2023-04-25T04:05:27;4.40;;;2.08;;
51907;SDS011;39320;53.214;6.556;2023-04-25T04:07:54;4.13;;;2.13;;
51907;SDS011;39320;53.214;6.556;2023-04-25T04:10:20;6.55;;;2.97;;
51907;SDS011;39320;53.214;6.556;2023-04-25T04:12:46;6.45;;;2.25;;
51907;SDS011;39320;53.214;6.556;2023-04-25T04:15:12;5.32;;;2.30;;
51907;SDS011;39320;53.214;6.556;2023-04-25T04:17:40;4.43;;;2.45;;
51907;SDS011;39320;53.214;6.556;2023-04-25T04:20:06;6.68;;;2.90;;
51907;SDS011;39320;53.214;6.556;2023-04-25T04:22:33;4.45;;;2.20;;
51907;SDS011;39320;53.214;6.556;2023-04-25T04:25:00;4.00;;;2.13;;
51907;SDS011;39320;53.214;6.556;2023-04-25T04:27:25;5.45;;;2.13;;
51907;SDS011;39320;53.214;6.556;2023-04-25T04:29:53;4.80;;;2.03;;
51907;SDS011;39320;53.214;6.556;2023-04-25T04:32:19;4.15;;;2.30;;
51907;SDS011;39320;53.214;6.556;2023-04-25T04:34:45;7.43;;;2.33;;
51907;SDS011;39320;53.214;6.556;2023-04-25T04:37:12;4.82;;;2.83;;
51907;SDS011;39320;53.214;6.556;2023-04-25T04:39:38;3.63;;;1.70;;
51907;SDS011;39320;53.214;6.556;2023-04-25T04:42:04;5.97;;;2.45;;
51907;SDS011;39320;53.214;6.556;2023-04-25T04:44:30;4.32;;;2.22;;
51907;SDS011;39320;53.214;6.556;2023-04-25T04:46:59;4.85;;;1.80;;
51907;SDS011;39320;53.214;6.556;2023-04-25T04:49:25;4.30;;;2.22;;
51907;SDS011;39320;53.214;6.556;2023-04-25T04:51:51;3.50;;;2.33;;
51907;SDS011;39320;53.214;6.556;2023-04-25T04:54:19;3.28;;;2.00;;
51907;SDS011;39320;53.214;6.556;2023-04-25T04:56:45;6.43;;;2.10;;
51907;SDS011;39320;53.214;6.556;2023-04-25T04:59:11;5.47;;;2.40;;
51907;SDS011;39320;53.214;6.556;2023-04-25T05:01:43;4.38;;;2.25;;
51907;SDS011;39320;53.214;6.556;2023-04-25T05:04:08;5.75;;;2.28;;
51907;SDS011;39320;53.214;6.556;2023-04-25T05:06:37;5.93;;;2.17;;
51907;SDS011;39320;53.214;6.556;2023-04-25T05:09:03;3.08;;;1.95;;
51907;SDS011;39320;53.214;6.556;2023-04-25T05:11:29;3.13;;;1.83;;
51907;SDS011;39320;53.214;6.556;2023-04-25T05:13:55;3.08;;;1.77;;
51907;SDS011;39320;53.214;6.556;2023-04-25T05:16:21;5.88;;;2.13;;
51907;SDS011;39320;53.214;6.556;2023-04-25T05:18:47;5.15;;;1.60;;
51907;SDS011;39320;53.214;6.556;2023-04-25T05:21:13;1.85;;;1.60;;
51907;SDS011;39320;53.214;6.556;2023-04-25T05:23:39;3.33;;;1.50;;
51907;SDS011;39320;53.214;6.556;2023-04-25T05:26:05;3.35;;;1.50;;
51907;SDS011;39320;53.214;6.556;2023-04-25T05:28:31;2.42;;;1.85;;
51907;SDS011;39320;53.214;6.556;2023-04-25T05:30:57;4.22;;;1.20;;
51907;SDS011;39320;53.214;6.556;2023-04-25T05:33:22;3.53;;;1.15;;
51907;SDS011;39320;53.214;6.556;2023-04-25T05:35:48;2.67;;;1.50;;
51907;SDS011;39320;53.214;6.556;2023-04-25T05:38:17;2.45;;;1.73;;
51907;SDS011;39320;53.214;6.556;2023-04-25T05:40:43;4.60;;;1.20;;
51907;SDS011;39320;53.214;6.556;2023-04-25T05:43:09;3.28;;;1.77;;
51907;SDS011;39320;53.214;6.556;2023-04-25T05:45:35;3.75;;;1.67;;
51907;SDS011;39320;53.214;6.556;2023-04-25T05:48:01;3.80;;;1.33;;
51907;SDS011;39320;53.214;6.556;2023-04-25T05:50:27;2.00;;;1.65;;
51907;SDS011;39320;53.214;6.556;2023-04-25T05:52:54;4.28;;;1.40;;
51907;SDS011;39320;53.214;6.556;2023-04-25T05:55:19;2.25;;;1.23;;
51907;SDS011;39320;53.214;6.556;2023-04-25T05:57:45;2.63;;;1.48;;
51907;SDS011;39320;53.214;6.556;2023-04-25T06:00:12;2.38;;;1.40;;
51907;SDS011;39320;53.214;6.556;2023-04-25T06:02:40;4.15;;;1.80;;
51907;SDS011;39320;53.214;6.556;2023-04-25T06:05:06;4.35;;;1.45;;
51907;SDS011;39320;53.214;6.556;2023-04-25T06:07:32;2.05;;;1.50;;
51907;SDS011;39320;53.214;6.556;2023-04-25T06:09:58;2.03;;;1.50;;
51907;SDS011;39320;53.214;6.556;2023-04-25T06:12:26;2.65;;;1.63;;
51907;SDS011;39320;53.214;6.556;2023-04-25T06:14:57;2.03;;;1.55;;
51907;SDS011;39320;53.214;6.556;2023-04-25T06:17:23;1.52;;;1.38;;
51907;SDS011;39320;53.214;6.556;2023-04-25T06:19:49;2.13;;;1.33;;
51907;SDS011;39320;53.214;6.556;2023-04-25T06:22:16;3.58;;;1.70;;
51907;SDS011;39320;53.214;6.556;2023-04-25T06:24:42;2.05;;;1.73;;
51907;SDS011;39320;53.214;6.556;2023-04-25T06:27:08;5.45;;;1.90;;
51907;SDS011;39320;53.214;6.556;2023-04-25T06:29:33;4.75;;;1.75;;
51907;SDS011;39320;53.214;6.556;2023-04-25T06:31:59;3.08;;;1.73;;
51907;SDS011;39320;53.214;6.556;2023-04-25T06:34:26;3.03;;;1.88;;
51907;SDS011;39320;53.214;6.556;2023-04-25T06:36:52;4.78;;;1.60;;
51907;SDS011;39320;53.214;6.556;2023-04-25T06:39:18;4.80;;;1.80;;
51907;SDS011;39320;53.214;6.556;2023-04-25T06:41:45;6.93;;;2.22;;
51907;SDS011;39320;53.214;6.556;2023-04-25T06:44:11;2.53;;;1.95;;
51907;SDS011;39320;53.214;6.556;2023-04-25T06:46:37;3.67;;;1.50;;
51907;SDS011;39320;53.214;6.556;2023-04-25T06:49:03;5.45;;;2.45;;
51907;SDS011;39320;53.214;6.556;2023-04-25T06:51:29;2.83;;;1.70;;
51907;SDS011;39320;53.214;6.556;2023-04-25T06:53:55;4.10;;;1.60;;
51907;SDS011;39320;53.214;6.556;2023-04-25T06:56:21;4.75;;;1.95;;
51907;SDS011;39320;53.214;6.556;2023-04-25T06:58:48;4.63;;;1.83;;
51907;SDS011;39320;53.214;6.556;2023-04-25T07:01:14;5.57;;;1.83;;
51907;SDS011;39320;53.214;6.556;2023-04-25T07:03:40;2.30;;;1.50;;
51907;SDS011;39320;53.214;6.556;2023-04-25T07:06:06;3.95;;;1.42;;
51907;SDS011;39320;53.214;6.556;2023-04-25T07:08:32;3.38;;;1.85;;
51907;SDS011;39320;53.214;6.556;2023-04-25T07:10:58;3.33;;;1.80;;
51907;SDS011;39320;53.214;6.556;2023-04-25T07:13:24;3.03;;;1.52;;
51907;SDS011;39320;53.214;6.556;2023-04-25T07:15:50;3.55;;;1.52;;
51907;SDS011;39320;53.214;6.556;2023-04-25T07:18:16;4.82;;;1.67;;
51907;SDS011;39320;53.214;6.556;2023-04-25T07:20:42;3.40;;;1.77;;
51907;SDS011;39320;53.214;6.556;2023-04-25T07:23:07;5.15;;;1.65;;
51907;SDS011;39320;53.214;6.556;2023-04-25T07:25:33;2.83;;;1.75;;
51907;SDS011;39320;53.214;6.556;2023-04-25T07:28:00;2.15;;;1.25;;
51907;SDS011;39320;53.214;6.556;2023-04-25T07:30:26;3.50;;;1.50;;
51907;SDS011;39320;53.214;6.556;2023-04-25T07:32:52;3.58;;;1.92;;
51907;SDS011;39320;53.214;6.556;2023-04-25T07:35:17;3.60;;;1.55;;
51907;SDS011;39320;53.214;6.556;2023-04-25T07:37:43;2.92;;;1.30;;
51907;SDS011;39320;53.214;6.556;2023-04-25T07:40:12;3.45;;;1.70;;
51907;SDS011;39320;53.214;6.556;2023-04-25T07:42:38;3.55;;;1.80;;
51907;SDS011;39320;53.214;6.556;2023-04-25T07:45:04;2.22;;;1.60;;
51907;SDS011;39320;53.214;6.556;2023-04-25T07:47:31;3.20;;;1.65;;
51907;SDS011;39320;53.214;6.556;2023-04-25T07:49:56;2.42;;;1.25;;
51907;SDS011;39320;53.214;6.556;2023-04-25T07:52:23;3.22;;;1.25;;
51907;SDS011;39320;53.214;6.556;2023-04-25T07:54:49;2.60;;;1.40;;
51907;SDS011;39320;53.214;6.556;2023-04-25T07:57:15;2.20;;;1.38;;
51907;SDS011;39320;53.214;6.556;2023-04-25T07:59:42;2.72;;;1.38;;
51907;SDS011;39320;53.214;6.556;2023-04-25T08:02:08;1.63;;;1.20;;
51907;SDS011;39320;53.214;6.556;2023-04-25T08:04:33;2.30;;;1.60;;
51907;SDS011;39320;53.214;6.556;2023-04-25T08:07:00;2.92;;;1.30;;
51907;SDS011;39320;53.214;6.556;2023-04-25T08:09:25;2.33;;;1.05;;
51907;SDS011;39320;53.214;6.556;2023-04-25T08:11:52;1.52;;;1.00;;
51907;SDS011;39320;53.214;6.556;2023-04-25T08:14:18;2.03;;;1.00;;
51907;SDS011;39320;53.214;6.556;2023-04-25T08:16:44;1.13;;;0.98;;
51907;SDS011;39320;53.214;6.556;2023-04-25T08:19:10;2.05;;;1.10;;
51907;SDS011;39320;53.214;6.556;2023-04-25T08:21:37;1.73;;;1.20;;
51907;SDS011;39320;53.214;6.556;2023-04-25T08:24:02;1.67;;;1.13;;
51907;SDS011;39320;53.214;6.556;2023-04-25T08:26:29;2.50;;;1.00;;
51907;SDS011;39320;53.214;6.556;2023-04-25T08:28:55;1.05;;;1.02;;
51907;SDS011;39320;53.214;6.556;2023-04-25T08:31:21;2.70;;;1.02;;
51907;SDS011;39320;53.214;6.556;2023-04-25T08:33:47;2.50;;;1.13;;
51907;SDS011;39320;53.214;6.556;2023-04-25T08:36:15;1.42;;;1.33;;
51907;SDS011;39320;53.214;6.556;2023-04-25T08:38:42;2.08;;;1.60;;
51907;SDS011;39320;53.214;6.556;2023-04-25T08:41:08;2.78;;;1.20;;
51907;SDS011;39320;53.214;6.556;2023-04-25T08:43:36;2.45;;;1.38;;
51907;SDS011;39320;53.214;6.556;2023-04-25T08:46:04;2.28;;;1.08;;
51907;SDS011;39320;53.214;6.556;2023-04-25T08:48:32;1.27;;;1.15;;
51907;SDS011;39320;53.214;6.556;2023-04-25T08:50:58;2.95;;;1.60;;
51907;SDS011;39320;53.214;6.556;2023-04-25T08:53:29;1.33;;;1.23;;
51907;SDS011;39320;53.214;6.556;2023-04-25T08:55:58;2.33;;;0.93;;
51907;SDS011;39320;53.214;6.556;2023-04-25T08:58:27;3.13;;;1.33;;
51907;SDS011;39320;53.214;6.556;2023-04-25T09:00:54;1.98;;;1.40;;
51907;SDS011;39320;53.214;6.556;2023-04-25T09:03:20;3.20;;;1.50;;
51907;SDS011;39320;53.214;6.556;2023-04-25T09:05:46;2.03;;;1.30;;
51907;SDS011;39320;53.214;6.556;2023-04-25T09:08:12;2.85;;;1.38;;
51907;SDS011;39320;53.214;6.556;2023-04-25T09:10:38;3.38;;;1.30;;
51907;SDS011;39320;53.214;6.556;2023-04-25T09:15:33;3.33;;;1.70;;
51907;SDS011;39320;53.214;6.556;2023-04-25T09:18:24;1.70;;;1.60;;
51907;SDS011;39320;53.214;6.556;2023-04-25T09:21:13;1.98;;;1.70;;
51907;SDS011;39320;53.214;6.556;2023-04-25T09:23:40;4.38;;;2.03;;
51907;SDS011;39320;53.214;6.556;2023-04-25T09:26:08;7.95;;;2.08;;
51907;SDS011;39320;53.214;6.556;2023-04-25T09:28:34;3.92;;;1.60;;
51907;SDS011;39320;53.214;6.556;2023-04-25T09:31:02;4.30;;;2.08;;
51907;SDS011;39320;53.214;6.556;2023-04-25T09:33:29;1.63;;;1.40;;
51907;SDS011;39320;53.214;6.556;2023-04-25T09:36:04;2.20;;;1.90;;
51907;SDS011;39320;53.214;6.556;2023-04-25T09:38:32;3.05;;;1.52;;
51907;SDS011;39320;53.214;6.556;2023-04-25T09:41:12;2.85;;;1.92;;
51907;SDS011;39320;53.214;6.556;2023-04-25T09:43:38;4.50;;;1.48;;
51907;SDS011;39320;53.214;6.556;2023-04-25T09:46:09;4.47;;;1.67;;
51907;SDS011;39320;53.214;6.556;2023-04-25T09:48:36;2.95;;;1.50;;
51907;SDS011;39320;53.214;6.556;2023-04-25T09:51:06;4.95;;;1.40;;
51907;SDS011;39320;53.214;6.556;2023-04-25T09:53:33;3.92;;;1.67;;
51907;SDS011;39320;53.214;6.556;2023-04-25T09:56:04;4.18;;;1.45;;
51907;SDS011;39320;53.214;6.556;2023-04-25T09:58:31;3.35;;;1.77;;
51907;SDS011;39320;53.214;6.556;2023-04-25T10:00:59;5.97;;;1.98;;
51907;SDS011;39320;53.214;6.556;2023-04-25T10:03:29;4.70;;;1.65;;
51907;SDS011;39320;53.214;6.556;2023-04-25T10:05:57;6.82;;;1.60;;
51907;SDS011;39320;53.214;6.556;2023-04-25T10:08:25;3.97;;;2.10;;
51907;SDS011;39320;53.214;6.556;2023-04-25T10:11:03;5.88;;;1.75;;
51907;SDS011;39320;53.214;6.556;2023-04-25T10:13:35;3.30;;;1.70;;
51907;SDS011;39320;53.214;6.556;2023-04-25T10:16:02;6.53;;;1.95;;
51907;SDS011;39320;53.214;6.556;2023-04-25T10:18:30;3.08;;;1.70;;
51907;SDS011;39320;53.214;6.556;2023-04-25T10:21:01;4.35;;;1.60;;
51907;SDS011;39320;53.214;6.556;2023-04-25T10:23:31;2.97;;;1.65;;
51907;SDS011;39320;53.214;6.556;2023-04-25T10:25:59;4.40;;;1.80;;
51907;SDS011;39320;53.214;6.556;2023-04-25T10:28:28;5.05;;;2.10;;
51907;SDS011;39320;53.214;6.556;2023-04-25T10:31:00;5.05;;;2.10;;
51907;SDS011;39320;53.214;6.556;2023-04-25T10:33:40;3.13;;;1.67;;
51907;SDS011;39320;53.214;6.556;2023-04-25T10:36:08;5.50;;;2.88;;
51907;SDS011;39320;53.214;6.556;2023-04-25T10:38:39;3.33;;;1.80;;
51907;SDS011;39320;53.214;6.556;2023-04-25T10:41:05;3.92;;;1.83;;
51907;SDS011;39320;53.214;6.556;2023-04-25T10:43:39;4.35;;;2.00;;
51907;SDS011;39320;53.214;6.556;2023-04-25T10:49:00;2.95;;;1.50;;
51907;SDS011;39320;53.214;6.556;2023-04-25T10:51:28;2.17;;;1.83;;
51907;SDS011;39320;53.214;6.556;2023-04-25T10:54:09;3.85;;;1.38;;
51907;SDS011;39320;53.214;6.556;2023-04-25T10:56:40;2.95;;;1.30;;
51907;SDS011;39320;53.214;6.556;2023-04-25T10:59:18;2.65;;;1.48;;
51907;SDS011;39320;53.214;6.556;2023-04-25T11:01:46;3.28;;;1.50;;
51907;SDS011;39320;53.214;6.556;2023-04-25T11:04:24;5.78;;;1.67;;
51907;SDS011;39320;53.214;6.556;2023-04-25T11:07:20;5.03;;;1.73;;
51907;SDS011;39320;53.214;6.556;2023-04-25T11:09:49;1.90;;;1.52;;
51907;SDS011;39320;53.214;6.556;2023-04-25T11:12:15;3.03;;;1.35;;
51907;SDS011;39320;53.214;6.556;2023-04-25T11:14:42;2.03;;;1.40;;
51907;SDS011;39320;53.214;6.556;2023-04-25T11:17:10;1.90;;;1.30;;
51907;SDS011;39320;53.214;6.556;2023-04-25T11:19:36;4.20;;;1.40;;
51907;SDS011;39320;53.214;6.556;2023-04-25T11:22:02;3.45;;;1.77;;
51907;SDS011;39320;53.214;6.556;2023-04-25T11:26:56;2.17;;;1.30;;
51907;SDS011;39320;53.214;6.556;2023-04-25T11:29:28;3.28;;;1.50;;
51907;SDS011;39320;53.214;6.556;2023-04-25T11:31:55;3.17;;;1.40;;
51907;SDS011;39320;53.214;6.556;2023-04-25T11:34:27;2.90;;;1.40;;
51907;SDS011;39320;53.214;6.556;2023-04-25T11:36:57;3.85;;;1.33;;
51907;SDS011;39320;53.214;6.556;2023-04-25T11:39:27;2.70;;;1.48;;
51907;SDS011;39320;53.214;6.556;2023-04-25T11:41:54;2.95;;;1.38;;
51907;SDS011;39320;53.214;6.556;2023-04-25T11:44:20;4.60;;;1.58;;
51907;SDS011;39320;53.214;6.556;2023-04-25T11:46:47;3.03;;;1.55;;
51907;SDS011;39320;53.214;6.556;2023-04-25T11:49:13;4.63;;;1.63;;
51907;SDS011;39320;53.214;6.556;2023-04-25T11:51:40;4.25;;;1.63;;
51907;SDS011;39320;53.214;6.556;2023-04-25T11:54:13;2.10;;;1.40;;
51907;SDS011;39320;53.214;6.556;2023-04-25T11:56:43;3.00;;;1.55;;
51907;SDS011;39320;53.214;6.556;2023-04-25T11:59:10;2.90;;;1.60;;
51907;SDS011;39320;53.214;6.556;2023-04-25T12:01:37;2.03;;;1.40;;
51907;SDS011;39320;53.214;6.556;2023-04-25T12:06:46;3.58;;;1.60;;
51907;SDS011;39320;53.214;6.556;2023-04-25T12:09:14;1.73;;;1.30;;
51907;SDS011;39320;53.214;6.556;2023-04-25T12:11:44;2.38;;;1.45;;
51907;SDS011;39320;53.214;6.556;2023-04-25T12:14:11;3.92;;;1.42;;
51907;SDS011;39320;53.214;6.556;2023-04-25T12:16:46;3.87;;;1.70;;
51907;SDS011;39320;53.214;6.556;2023-04-25T12:19:17;2.65;;;1.48;;
51907;SDS011;39320;53.214;6.556;2023-04-25T12:21:44;2.78;;;1.55;;
51907;SDS011;39320;53.214;6.556;2023-04-25T12:24:24;3.10;;;1.73;;
51907;SDS011;39320;53.214;6.556;2023-04-25T12:27:05;1.92;;;1.23;;
51907;SDS011;39320;53.214;6.556;2023-04-25T12:29:33;3.10;;;1.95;;
51907;SDS011;39320;53.214;6.556;2023-04-25T12:31:59;2.45;;;1.90;;
51907;SDS011;39320;53.214;6.556;2023-04-25T12:34:27;3.30;;;1.40;;
51907;SDS011;39320;53.214;6.556;2023-04-25T12:36:53;3.88;;;1.85;;
51907;SDS011;39320;53.214;6.556;2023-04-25T12:39:23;5.63;;;1.55;;
51907;SDS011;39320;53.214;6.556;2023-04-25T12:41:51;3.78;;;1.40;;
51907;SDS011;39320;53.214;6.556;2023-04-25T12:44:20;5.22;;;1.42;;
51907;SDS011;39320;53.214;6.556;2023-04-25T12:46:46;1.98;;;1.35;;
51907;SDS011;39320;53.214;6.556;2023-04-25T12:49:12;4.45;;;1.50;;
51907;SDS011;39320;53.214;6.556;2023-04-25T12:51:38;3.20;;;1.38;;
51907;SDS011;39320;53.214;6.556;2023-04-25T12:54:04;3.80;;;1.67;;
51907;SDS011;39320;53.214;6.556;2023-04-25T12:56:34;2.38;;;1.13;;
51907;SDS011;39320;53.214;6.556;2023-04-25T12:59:01;3.20;;;1.30;;
51907;SDS011;39320;53.214;6.556;2023-04-25T13:01:33;2.80;;;1.33;;
51907;SDS011;39320;53.214;6.556;2023-04-25T13:03:59;3.85;;;1.63;;
51907;SDS011;39320;53.214;6.556;2023-04-25T13:06:24;2.58;;;1.13;;
51907;SDS011;39320;53.214;6.556;2023-04-25T13:08:51;3.35;;;1.30;;
51907;SDS011;39320;53.214;6.556;2023-04-25T13:11:16;3.83;;;1.35;;
51907;SDS011;39320;53.214;6.556;2023-04-25T13:13:43;4.20;;;1.65;;
51907;SDS011;39320;53.214;6.556;2023-04-25T13:16:09;1.92;;;1.27;;
51907;SDS011;39320;53.214;6.556;2023-04-25T13:18:35;2.15;;;1.73;;
51907;SDS011;39320;53.214;6.556;2023-04-25T13:21:02;4.50;;;1.30;;
51907;SDS011;39320;53.214;6.556;2023-04-25T13:23:28;4.78;;;1.20;;
51907;SDS011;39320;53.214;6.556;2023-04-25T13:25:54;5.75;;;1.70;;
51907;SDS011;39320;53.214;6.556;2023-04-25T13:28:23;1.83;;;1.55;;
51907;SDS011;39320;53.214;6.556;2023-04-25T13:30:49;4.25;;;1.60;;
51907;SDS011;39320;53.214;6.556;2023-04-25T13:33:20;5.03;;;1.83;;
51907;SDS011;39320;53.214;6.556;2023-04-25T13:35:47;3.08;;;1.65;;
51907;SDS011;39320;53.214;6.556;2023-04-25T13:40:48;3.72;;;1.65;;
51907;SDS011;39320;53.214;6.556;2023-04-25T13:43:14;3.80;;;1.70;;
51907;SDS011;39320;53.214;6.556;2023-04-25T13:45:41;4.55;;;1.65;;
51907;SDS011;39320;53.214;6.556;2023-04-25T13:48:07;3.17;;;1.52;;
51907;SDS011;39320;53.214;6.556;2023-04-25T13:50:33;2.80;;;1.70;;
51907;SDS011;39320;53.214;6.556;2023-04-25T13:52:58;2.67;;;1.73;;
51907;SDS011;39320;53.214;6.556;2023-04-25T13:55:25;1.88;;;1.23;;
51907;SDS011;39320;53.214;6.556;2023-04-25T13:57:51;2.72;;;1.40;;
51907;SDS011;39320;53.214;6.556;2023-04-25T14:00:17;2.88;;;1.42;;
51907;SDS011;39320;53.214;6.556;2023-04-25T14:02:43;6.47;;;1.65;;
51907;SDS011;39320;53.214;6.556;2023-04-25T14:05:09;3.05;;;1.70;;
51907;SDS011;39320;53.214;6.556;2023-04-25T14:07:35;3.38;;;1.38;;
51907;SDS011;39320;53.214;6.556;2023-04-25T14:10:02;4.57;;;1.73;;
51907;SDS011;39320;53.214;6.556;2023-04-25T14:12:29;3.33;;;1.75;;
51907;SDS011;39320;53.214;6.556;2023-04-25T14:14:55;4.43;;;1.75;;
51907;SDS011;39320;53.214;6.556;2023-04-25T14:17:21;3.83;;;1.80;;
51907;SDS011;39320;53.214;6.556;2023-04-25T14:19:47;5.50;;;1.88;;
51907;SDS011;39320;53.214;6.556;2023-04-25T14:22:13;4.90;;;1.95;;
51907;SDS011;39320;53.214;6.556;2023-04-25T14:24:40;2.65;;;1.60;;
51907;SDS011;39320;53.214;6.556;2023-04-25T14:27:08;2.47;;;1.40;;
51907;SDS011;39320;53.214;6.556;2023-04-25T14:29:34;2.22;;;1.20;;
51907;SDS011;39320;53.214;6.556;2023-04-25T14:32:00;2.67;;;1.40;;
51907;SDS011;39320;53.214;6.556;2023-04-25T14:34:27;1.60;;;1.45;;
51907;SDS011;39320;53.214;6.556;2023-04-25T14:36:53;4.93;;;1.67;;
51907;SDS011;39320;53.214;6.556;2023-04-25T14:39:18;2.70;;;1.33;;
51907;SDS011;39320;53.214;6.556;2023-04-25T14:41:45;2.05;;;1.60;;
51907;SDS011;39320;53.214;6.556;2023-04-25T14:44:10;4.05;;;1.15;;
51907;SDS011;39320;53.214;6.556;2023-04-25T14:46:37;5.72;;;1.85;;
51907;SDS011;39320;53.214;6.556;2023-04-25T14:49:03;2.28;;;1.35;;
51907;SDS011;39320;53.214;6.556;2023-04-25T14:51:29;3.38;;;1.77;;
51907;SDS011;39320;53.214;6.556;2023-04-25T14:53:56;1.88;;;1.48;;
51907;SDS011;39320;53.214;6.556;2023-04-25T14:56:22;4.95;;;1.55;;
51907;SDS011;39320;53.214;6.556;2023-04-25T14:58:48;2.60;;;1.55;;
51907;SDS011;39320;53.214;6.556;2023-04-25T15:01:13;1.40;;;1.00;;